Time;durP1;ratioP1;P1;durP2;ratioP2;P2;SDS_P1;SDS_P2;PMS_P1;PMS_P2;Temp;Humidity;BMP_temperature;BMP_pressure;BME280_temperature;BME280_humidity;BME280_pressure;Samples;Min_cycle;Max_cycle;Signal;HPM_P1;HPM_P2
2022/04/08 00:01:07;;;;;;;1.47;1.00;;;;;;;10.98;44.70;94247.25;4877426;29;20677;-84
2022/04/08 00:03:42;;;;;;;1.00;1.00;;;;;;;19.84;44.70;95775.66;4861914;29;20227;-84
2022/04/08 00:06:09;;;;;;;0.80;0.80;;;;;;;11.01;44.19;94260.72;4884561;29;20345;-84
2022/04/08 00:08:38;;;;;;;1.20;1.10;;;;;;;16.98;44.79;95310.69;4894067;29;20206;-84
2022/04/08 00:11:07;;;;;;;0.90;0.83;;;;;;;19.85;44.78;95757.00;4846750;29;20283;-86
2022/04/08 00:13:33;;;;;;;1.10;1.00;;;;;;;19.84;44.82;95757.00;4876126;29;20626;-84
2022/04/08 00:16:00;;;;;;;0.90;0.90;;;;;;;19.85;44.75;95768.88;4846512;29;20241;-84
2022/04/08 00:18:29;;;;;;;1.50;0.93;;;;;;;19.85;44.55;95774.84;4861836;29;20262;-85
2022/04/08 00:20:57;;;;;;;1.10;1.00;;;;;;;19.85;44.77;95787.59;4861988;29;20761;-84
2022/04/08 00:23:24;;;;;;;0.90;0.90;;;;;;;17.06;44.66;95324.31;4875868;29;20226;-83
2022/04/08 00:25:51;;;;;;;0.90;0.90;;;;;;;19.85;44.82;95796.94;4877272;29;20199;-84
2022/04/08 00:28:20;;;;;;;0.70;0.70;;;;;;;18.08;44.51;95500.72;4878619;29;20210;-84
2022/04/08 00:30:50;;;;;;;0.90;0.90;;;;;;;19.84;44.84;95796.06;4846836;29;20284;-84
2022/04/08 00:33:16;;;;;;;2.03;0.80;;;;;;;19.83;44.31;95791.81;4861904;29;20265;-85
2022/04/08 05:12:26;;;;;;;2.20;1.00;;;;;;;19.77;44.57;96096.75;4289393;23;20577;-91
2022/04/08 05:28:31;;;;;;;7.97;1.93;;;;;;;13.47;43.27;95041.66;5014629;23;20238;-90
2022/04/08 05:30:58;;;;;;;9.67;2.00;;;;;;;18.67;43.54;95993.19;4893752;29;20237;-90
2022/04/08 05:33:38;;;;;;;8.23;2.07;;;;;;;16.19;43.71;95565.50;4897079;29;20178;-93
2022/04/08 05:36:05;;;;;;;10.47;2.10;;;;;;;16.77;44.29;95605.47;4890567;29;20206;-94
2022/04/08 05:38:46;;;;;;;7.10;1.83;;;;;;;14.57;44.02;95299.88;4876719;29;20209;-91
2022/04/08 05:41:13;;;;;;;11.83;2.03;;;;;;;16.31;43.91;95539.53;4874694;29;20190;-92
2022/04/08 05:43:44;;;;;;;7.70;2.30;;;;;;;17.19;44.15;95699.22;4874756;29;20207;-92
2022/04/08 06:38:14;;;;;;;3.90;1.60;;;;;;;17.79;43.75;95850.13;4727270;27;20199;-93
2022/04/08 06:40:52;;;;;;;4.13;1.83;;;;;;;17.31;43.72;95756.13;4888498;29;20208;-94
2022/04/08 06:59:58;;;;;;;2.17;1.70;;;;;;;17.73;43.89;95843.25;4918561;29;20233;-93
2022/04/08 07:02:28;;;;;;;3.27;1.70;;;;;;;17.69;44.15;95812.69;4874059;29;20199;-93
2022/04/08 07:04:58;;;;;;;4.20;1.77;;;;;;;16.55;44.02;95613.50;4855271;29;20248;-94
2022/04/08 07:07:32;;;;;;;3.47;1.67;;;;;;;16.89;43.95;95693.59;4854419;29;20195;-93
2022/04/08 07:09:59;;;;;;;4.03;1.80;;;;;;;17.15;44.10;95713.56;4884185;29;20220;-92
2022/04/08 07:12:26;;;;;;;5.73;1.80;;;;;;;18.15;44.07;95871.94;4869267;29;20216;-93
2022/04/08 07:14:54;;;;;;;2.83;1.37;;;;;;;18.08;44.11;95876.88;4884321;29;20244;-94
2022/04/08 07:17:34;;;;;;;2.93;1.43;;;;;;;17.51;44.28;95769.22;4854274;29;20192;-94
2022/04/08 07:20:15;;;;;;;2.87;1.53;;;;;;;19.66;44.08;96113.63;4870054;29;20203;-95
2022/04/08 07:22:44;;;;;;;4.10;1.60;;;;;;;19.76;44.09;96152.00;4869165;29;20196;-94
2022/04/08 07:25:14;;;;;;;3.87;1.50;;;;;;;19.76;44.16;96138.38;4884434;29;20211;-93
2022/04/08 07:27:49;;;;;;;3.23;1.67;;;;;;;16.85;43.92;95667.34;4853724;29;20211;-94
2022/04/08 07:30:18;;;;;;;3.37;1.87;;;;;;;18.14;44.06;95859.19;4853887;29;20266;-93
2022/04/08 07:32:50;;;;;;;3.10;1.50;;;;;;;19.77;44.24;96119.69;4884005;29;20233;-94
2022/04/08 07:35:25;;;;;;;2.97;1.70;;;;;;;17.09;44.35;95713.47;4854373;29;20275;-94
2022/04/08 07:37:55;;;;;;;5.27;1.60;;;;;;;16.76;44.28;95618.13;4884176;29;20207;-93
2022/04/08 07:40:23;;;;;;;2.90;1.30;;;;;;;16.67;44.28;95638.25;4854142;29;20248;-94
2022/04/08 07:42:50;;;;;;;2.67;1.63;;;;;;;17.54;44.27;95780.28;4868753;29;20188;-94
2022/04/08 07:45:24;;;;;;;3.27;1.77;;;;;;;18.85;44.13;95959.53;4854258;29;20274;-94
2022/04/08 07:47:51;;;;;;;3.27;1.40;;;;;;;16.88;44.32;95643.72;4854413;29;20195;-93
2022/04/08 07:50:19;;;;;;;2.83;1.40;;;;;;;16.74;44.32;95607.97;4868223;29;20220;-94
2022/04/08 07:52:46;;;;;;;2.43;1.20;;;;;;;16.96;44.13;95654.84;4868599;29;20202;-94
2022/04/08 07:55:13;;;;;;;3.03;1.50;;;;;;;18.93;44.45;95986.84;4853214;29;20216;-93
2022/04/08 07:57:46;;;;;;;2.57;1.50;;;;;;;16.67;44.39;95602.75;4868619;29;20191;-93
2022/04/08 08:00:15;;;;;;;2.23;1.50;;;;;;;17.27;44.03;95721.38;4853068;29;20183;-94
2022/04/08 08:02:43;;;;;;;2.10;1.27;;;;;;;17.23;44.20;95701.00;4883680;29;20430;-94
2022/04/08 08:05:10;;;;;;;3.57;1.60;;;;;;;16.76;44.35;95616.47;4900464;29;20243;-94
2022/04/08 08:07:54;;;;;;;3.63;1.50;;;;;;;16.66;44.21;95594.28;4871782;29;20203;-93
2022/04/08 08:10:26;;;;;;;2.33;1.40;;;;;;;19.23;44.25;96045.84;4858265;29;20206;-93
2022/04/08 08:12:54;;;;;;;4.17;1.37;;;;;;;19.77;44.08;96100.16;4856730;29;20203;-91
2022/04/08 08:15:22;;;;;;;3.33;1.70;;;;;;;19.27;44.21;96014.53;4871444;29;20215;-94
2022/04/08 08:17:49;;;;;;;3.70;1.60;;;;;;;18.06;44.01;95818.41;4856539;29;20183;-93
2022/04/08 08:20:19;;;;;;;3.17;1.30;;;;;;;18.17;44.36;95814.34;4871524;29;20211;-94
2022/04/08 08:22:47;;;;;;;3.70;1.37;;;;;;;18.82;44.26;95945.09;4871636;29;20228;-94
2022/04/08 08:28:01;;;;;;;3.67;1.77;;;;;;;16.82;44.04;95603.88;1090674;27;20454;-92
2022/04/08 08:30:29;;;;;;;3.40;1.60;;;;;;;17.21;43.38;95669.66;4914209;29;20217;-93
2022/04/08 08:32:58;;;;;;;3.57;1.50;;;;;;;16.98;43.22;95631.22;4878440;29;20226;-93
2022/04/08 08:35:32;;;;;;;2.40;1.33;;;;;;;16.70;43.39;95598.59;4876213;29;20234;-93
2022/04/08 08:38:03;;;;;;;1.40;1.30;;;;;;;17.23;43.36;95673.91;4891242;29;20187;-93
2022/04/08 08:40:34;;;;;;;2.07;1.20;;;;;;;17.31;43.71;95679.97;4874489;29;20231;-94
2022/04/08 08:43:07;;;;;;;2.03;1.30;;;;;;;17.74;43.95;95763.66;4877229;29;20194;-93
2022/04/08 08:45:37;;;;;;;2.50;1.63;;;;;;;17.26;43.85;95681.59;4875134;29;20219;-93
2022/04/08 08:48:05;;;;;;;2.50;1.40;;;;;;;19.14;43.85;95992.25;4875444;29;20176;-93
2022/04/08 08:50:32;;;;;;;2.53;1.60;;;;;;;19.77;44.04;96081.47;4874785;29;20206;-93
2022/04/08 08:53:03;;;;;;;4.00;1.63;;;;;;;17.21;43.99;95670.53;4874934;29;20195;-93
2022/04/08 08:55:33;;;;;;;1.77;1.20;;;;;;;18.18;44.00;95844.03;4890156;29;20366;-93
2022/04/08 08:58:01;;;;;;;2.87;1.40;;;;;;;16.87;44.19;95611.56;4875227;29;20216;-92
2022/04/08 09:00:28;;;;;;;2.17;1.50;;;;;;;19.76;43.89;96072.97;4890176;29;20195;-93
2022/04/08 09:02:56;;;;;;;5.23;1.37;;;;;;;17.36;44.01;95678.38;4859392;29;20202;-94
2022/04/08 09:05:25;;;;;;;2.50;1.23;;;;;;;17.46;44.16;95692.09;4871694;29;20196;-92
2022/04/08 09:10:35;;;;;;;2.80;1.50;;;;;;;19.76;44.23;96060.22;4941743;23;20225;-92
2022/04/08 09:13:07;;;;;;;3.03;1.30;;;;;;;18.14;44.01;95786.34;4900472;29;20186;-93
2022/04/08 09:15:37;;;;;;;3.27;1.53;;;;;;;17.79;44.12;95723.97;4907570;24;20302;-93
2022/04/08 09:18:10;;;;;;;2.20;1.40;;;;;;;16.57;43.96;95543.41;4941702;23;20226;-94
2022/04/08 09:20:44;;;;;;;1.30;1.13;;;;;;;17.41;44.15;95676.75;4879700;29;20215;-93
2022/04/08 09:23:15;;;;;;;2.37;1.27;;;;;;;17.16;44.11;95613.75;4878705;29;20186;-94
2022/04/08 09:25:48;;;;;;;1.23;1.07;;;;;;;16.90;44.10;95559.19;4894537;29;20217;-94
2022/04/08 09:28:17;;;;;;;2.50;1.50;;;;;;;17.67;44.47;95675.50;4894786;29;20190;-93
2022/04/08 09:30:49;;;;;;;2.83;1.40;;;;;;;18.90;44.75;95902.81;4880967;29;20217;-93
2022/04/08 09:33:18;;;;;;;2.93;1.50;;;;;;;19.75;44.46;96029.63;4888211;29;20190;-94
2022/04/08 09:35:46;;;;;;;2.43;1.40;;;;;;;16.96;44.71;95558.44;4892513;29;20190;-93
2022/04/08 09:40:49;;;;;;;1.40;1.20;;;;;;;17.52;44.41;95657.50;4946662;23;20208;-93
2022/04/08 09:43:16;;;;;;;1.50;1.20;;;;;;;16.73;44.37;95517.50;4887376;29;20178;-94
2022/04/08 09:45:44;;;;;;;0.90;0.90;;;;;;;17.25;44.57;95588.50;4871600;29;20200;-94
2022/04/08 09:48:12;;;;;;;2.07;1.33;;;;;;;16.71;44.36;95501.41;4855963;29;20213;-93
2022/04/08 09:50:40;;;;;;;1.30;1.20;;;;;;;17.54;44.67;95621.97;4855701;29;20200;-93
2022/04/08 09:53:09;;;;;;;1.90;1.00;;;;;;;16.85;44.35;95504.16;4855264;29;20195;-92
2022/04/08 09:55:36;;;;;;;1.97;1.30;;;;;;;18.16;44.42;95705.03;4868682;29;20273;-93
2022/04/08 09:58:04;;;;;;;2.30;1.43;;;;;;;19.77;44.41;96005.84;4853057;29;20225;-93
2022/04/08 10:00:31;;;;;;;8.03;1.60;;;;;;;17.87;44.50;95673.25;4849096;29;20176;-93
2022/04/08 10:02:59;;;;;;;1.67;1.20;;;;;;;19.79;44.43;95990.59;4855034;29;20204;-93
2022/04/08 10:05:26;;;;;;;1.50;1.07;;;;;;;17.87;44.22;95660.56;4854806;29;20263;-93
2022/04/08 10:07:55;;;;;;;1.93;1.27;;;;;;;17.95;44.48;95672.53;4854848;29;20190;-93
2022/04/08 10:10:42;;;;;;;1.43;1.17;;;;;;;18.19;44.40;95684.72;4869732;29;20217;-93
2022/04/08 10:13:47;;;;;;;2.30;1.20;;;;;;;19.78;44.42;95950.66;4870315;29;20255;-93
2022/04/08 10:16:16;;;;;;;1.47;1.37;;;;;;;17.57;44.32;95578.84;4885174;29;20256;-93
2022/04/08 10:18:45;;;;;;;1.30;1.20;;;;;;;17.92;44.32;95636.91;4855075;29;20252;-94
2022/04/08 10:21:15;;;;;;;2.03;1.37;;;;;;;17.87;44.39;95605.53;4870324;29;20191;-93
2022/04/08 10:23:56;;;;;;;3.07;1.20;;;;;;;17.65;44.26;95600.97;4872321;29;20180;-92
2022/04/08 10:29:14;;;;;;;2.43;1.20;;;;;;;19.69;44.39;95897.03;5074472;23;20206;-94
2022/04/08 10:31:43;;;;;;;2.23;1.20;;;;;;;16.77;44.45;95434.69;4908864;29;20202;-93
2022/04/08 10:34:15;;;;;;;1.80;1.17;;;;;;;19.78;44.49;95908.16;4894340;29;20171;-93
2022/04/08 10:39:22;;;;;;;1.67;1.37;;;;;;;17.93;44.17;95613.22;5417205;23;20226;-94
2022/04/08 10:44:37;;;;;;;1.40;1.30;;;;;;;16.70;44.22;95387.25;4928645;23;20207;-94
2022/04/08 10:47:15;;;;;;;1.10;1.00;;;;;;;18.03;44.44;95574.38;4890132;29;20188;-93
2022/04/08 10:49:53;;;;;;;1.63;1.30;;;;;;;17.48;44.37;95478.03;4876441;29;20202;-93
2022/04/08 10:52:25;;;;;;;2.17;1.57;;;;;;;17.04;44.38;95417.31;4891964;29;20214;-93
2022/04/08 10:55:03;;;;;;;1.20;1.10;;;;;;;18.14;44.44;95613.50;4876011;29;20244;-93
2022/04/08 10:57:37;;;;;;;2.43;1.10;;;;;;;19.76;44.60;95843.59;4891725;29;20183;-93
2022/04/08 11:00:06;;;;;;;4.27;1.10;;;;;;;17.73;44.46;95486.75;4906163;29;20211;-90
2022/04/08 11:02:37;;;;;;;1.73;1.10;;;;;;;18.87;44.54;95690.66;4891133;29;20186;-92
2022/04/08 11:05:13;;;;;;;1.53;1.10;;;;;;;18.08;44.45;95557.50;4882336;29;20229;-92
2022/04/08 11:07:44;;;;;;;1.30;1.00;;;;;;;18.04;44.48;95553.22;4872944;29;20234;-92
2022/04/08 11:10:12;;;;;;;1.53;1.20;;;;;;;17.51;44.33;95464.50;4872506;29;20214;-93
2022/04/08 11:12:53;;;;;;;1.80;1.30;;;;;;;19.16;44.63;95714.72;4888103;29;20238;-92
2022/04/08 11:15:25;;;;;;;1.37;1.27;;;;;;;18.20;44.04;95546.59;4875978;29;20243;-93
2022/04/08 11:17:56;;;;;;;2.00;1.20;;;;;;;17.34;44.45;95421.09;4883477;29;20206;-94
2022/04/08 11:20:28;;;;;;;1.80;1.23;;;;;;;17.63;44.22;95455.34;4874629;29;20197;-93
2022/04/08 11:23:01;;;;;;;2.30;1.30;;;;;;;16.77;44.55;95292.66;4892049;29;20206;-94
2022/04/08 11:25:44;;;;;;;1.60;1.20;;;;;;;17.04;44.55;95339.53;4876680;29;20203;-93
2022/04/08 11:28:23;;;;;;;1.77;1.20;;;;;;;19.76;44.21;95777.31;4886694;29;20211;-94
2022/04/08 11:30:57;;;;;;;1.03;0.97;;;;;;;16.64;44.70;95218.13;4882685;29;20272;-93
2022/04/08 11:33:32;;;;;;;1.30;1.20;;;;;;;16.62;44.47;95247.69;4871247;29;20186;-93
2022/04/08 11:36:13;;;;;;;1.30;1.20;;;;;;;17.71;44.17;95402.09;4879085;29;20417;-93
2022/04/08 11:41:32;;;;;;;2.37;1.40;;;;;;;18.15;44.49;95472.00;5439331;23;20218;-94
2022/04/08 11:52:07;;;;;;;1.57;1.33;;;;;;;19.28;44.39;95635.94;1457590;27;20197;-93
2022/04/08 11:54:46;;;;;;;1.83;1.20;;;;;;;19.79;44.48;95698.34;4909859;29;20250;-93
2022/04/08 11:57:38;;;;;;;3.83;1.40;;;;;;;18.21;44.31;95452.56;4882124;29;20182;-94
2022/04/08 12:00:07;;;;;;;0.90;0.90;;;;;;;18.13;44.73;95405.91;4873060;29;20186;-93
2022/04/08 12:21:30;;;;;;;1.10;1.00;;;;;;;17.89;44.62;95310.81;4202979;27;20195;-93
2022/04/08 12:24:22;;;;;;;2.17;1.20;;;;;;;16.87;44.61;95147.41;4907859;29;20170;-93
2022/04/08 12:26:57;;;;;;;0.90;0.80;;;;;;;18.19;44.51;95356.81;4886040;29;20185;-94
2022/04/08 12:29:37;;;;;;;1.93;1.13;;;;;;;19.79;44.58;95659.25;4869340;29;20191;-94
2022/04/08 12:32:19;;;;;;;1.03;0.97;;;;;;;17.01;44.81;95181.34;4857677;29;20194;-93
